createdAt,value
2022-10-14T00:00:44.115Z,46.43
2022-10-14T00:03:10.766Z,46.33
2022-10-14T00:05:40.842Z,46.75
2022-10-14T00:08:09.050Z,47.16
2022-10-14T00:10:39.608Z,47.96
2022-10-14T00:13:07.059Z,48.06
2022-10-14T00:15:39.474Z,48.51
2022-10-14T00:18:07.228Z,48.36
2022-10-14T00:20:34.598Z,48.70
2022-10-14T00:23:01.786Z,48.65
2022-10-14T00:25:29.300Z,48.04
2022-10-14T00:27:55.887Z,48.04
2022-10-14T00:30:22.970Z,50.24
2022-10-14T00:32:49.704Z,49.09
2022-10-14T00:35:16.454Z,49.76
2022-10-14T00:37:43.136Z,49.94
2022-10-14T00:40:10.524Z,49.76
2022-10-14T00:42:37.118Z,51.46
2022-10-14T00:45:14.053Z,52.35
2022-10-14T00:47:42.586Z,51.68
2022-10-14T00:50:10.339Z,50.93
2022-10-14T00:52:37.507Z,51.06
2022-10-14T00:55:10.425Z,50.55
2022-10-14T00:57:38.711Z,50.98
2022-10-14T01:00:09.691Z,51.30
2022-10-14T01:02:36.356Z,51.28
2022-10-14T01:05:06.618Z,52.28
2022-10-14T01:07:49.122Z,52.70
2022-10-14T01:10:19.067Z,51.73
2022-10-14T01:13:24.214Z,51.46
2022-10-14T01:16:09.511Z,51.13
2022-10-14T01:19:02.422Z,51.61
2022-10-14T01:21:36.237Z,49.50
2022-10-14T01:24:08.650Z,50.33
2022-10-14T01:26:53.971Z,50.76
2022-10-14T01:29:45.385Z,51.77
2022-10-14T01:32:21.376Z,52.19
2022-10-14T01:34:55.932Z,51.02
2022-10-14T01:37:28.253Z,51.29
2022-10-14T01:39:59.543Z,51.80
2022-10-14T01:42:31.120Z,51.53
2022-10-14T01:45:06.215Z,50.87
2022-10-14T01:47:36.035Z,50.94
2022-10-14T01:50:15.940Z,51.58
2022-10-14T01:52:54.728Z,51.25
2022-10-14T01:55:25.507Z,51.58
2022-10-14T01:57:55.998Z,52.36
2022-10-14T02:00:22.861Z,53.97
2022-10-14T02:02:49.527Z,53.28
2022-10-14T02:05:41.466Z,53.50
2022-10-14T02:08:17.256Z,54.49
2022-10-14T02:11:02.741Z,53.88
2022-10-14T02:13:51.900Z,55.38
2022-10-14T02:16:34.687Z,55.64
2022-10-14T02:19:28.324Z,55.41
2022-10-14T02:22:09.573Z,55.81
2022-10-14T02:24:41.190Z,54.91
2022-10-14T02:27:13.498Z,55.94
2022-10-14T02:29:43.828Z,55.77
2022-10-14T02:32:13.238Z,55.02
2022-10-14T02:34:41.149Z,54.43
2022-10-14T02:37:08.036Z,55.15
2022-10-14T02:39:39.652Z,54.69
2022-10-14T02:42:07.034Z,55.47
2022-10-14T02:44:33.647Z,55.72
2022-10-14T02:47:00.386Z,55.47
2022-10-14T02:49:27.026Z,56.42
2022-10-14T02:51:53.629Z,57.03
2022-10-14T02:54:20.444Z,56.81
2022-10-14T02:56:47.050Z,57.63
2022-10-14T02:59:13.685Z,56.67
2022-10-14T03:01:40.330Z,56.17
2022-10-14T03:04:07.116Z,55.49
2022-10-14T03:06:33.751Z,56.90
2022-10-14T03:09:00.339Z,57.08
2022-10-14T03:11:26.939Z,57.25
2022-10-14T03:13:53.510Z,56.49
2022-10-14T03:16:20.174Z,57.32
2022-10-14T03:18:46.681Z,56.39
2022-10-14T03:21:13.334Z,56.00
2022-10-14T03:23:39.931Z,56.89
2022-10-14T03:26:09.487Z,56.90
2022-10-14T03:28:38.509Z,56.58
2022-10-14T03:31:05.293Z,56.92
2022-10-14T03:33:33.690Z,56.55
2022-10-14T03:36:00.515Z,56.89
2022-10-14T03:38:27.486Z,57.30
2022-10-14T03:40:54.827Z,57.18
2022-10-14T03:43:21.476Z,59.44
2022-10-14T03:45:48.084Z,58.44
2022-10-14T03:48:14.706Z,58.04
2022-10-14T03:50:41.381Z,58.23
2022-10-14T03:53:08.041Z,57.82
2022-10-14T03:55:34.647Z,58.91
2022-10-14T03:58:01.667Z,59.00
2022-10-14T04:00:28.307Z,58.15
2022-10-14T04:02:54.917Z,56.95
2022-10-14T04:05:21.554Z,57.20
2022-10-14T04:07:48.222Z,57.25
2022-10-14T04:10:14.887Z,57.36
2022-10-14T04:12:41.471Z,57.51
2022-10-14T04:15:08.775Z,56.98
2022-10-14T04:17:35.676Z,58.93
2022-10-14T04:20:02.322Z,58.11
2022-10-14T04:22:30.027Z,59.91
2022-10-14T04:24:56.670Z,60.05
2022-10-14T04:27:23.260Z,59.18
2022-10-14T04:29:50.352Z,58.24
2022-10-14T04:32:17.205Z,58.60
2022-10-14T04:34:43.785Z,58.82
2022-10-14T04:37:10.417Z,58.58
2022-10-14T04:39:37.084Z,58.08
2022-10-14T04:42:04.201Z,59.74
2022-10-14T04:44:30.754Z,59.60
2022-10-14T04:46:57.398Z,59.84
2022-10-14T04:49:24.689Z,59.08
2022-10-14T04:51:51.523Z,58.64
2022-10-14T04:54:18.206Z,57.59
2022-10-14T04:56:45.001Z,59.02
2022-10-14T04:59:12.294Z,59.12
2022-10-14T05:01:39.049Z,58.26
2022-10-14T05:04:06.281Z,58.45
2022-10-14T05:06:43.939Z,58.47
2022-10-14T05:09:11.378Z,57.75
2022-10-14T05:11:38.339Z,58.19
2022-10-14T05:14:05.173Z,58.79
2022-10-14T05:16:32.620Z,57.65
2022-10-14T05:19:02.673Z,57.05
2022-10-14T05:21:29.983Z,58.08
2022-10-14T05:23:57.306Z,57.06
2022-10-14T05:26:24.586Z,57.10
2022-10-14T05:28:54.829Z,57.29
2022-10-14T05:31:21.920Z,57.46
2022-10-14T05:33:52.178Z,58.02
2022-10-14T05:36:19.435Z,56.60
2022-10-14T05:38:46.701Z,55.85
2022-10-14T05:41:14.032Z,56.18
2022-10-14T05:43:41.458Z,55.19
2022-10-14T05:46:08.728Z,56.17
2022-10-14T05:48:35.981Z,55.13
2022-10-14T05:51:04.766Z,56.27
2022-10-14T05:53:34.947Z,56.38
2022-10-14T05:56:07.825Z,55.98
2022-10-14T05:58:35.546Z,56.04
2022-10-14T06:01:04.838Z,56.60
2022-10-14T06:03:34.292Z,56.96
2022-10-14T06:06:01.712Z,56.40
2022-10-14T06:08:29.544Z,54.47
2022-10-14T06:10:59.608Z,54.53
2022-10-14T06:13:28.201Z,55.55
2022-10-14T06:15:54.999Z,55.81
2022-10-14T06:18:22.773Z,55.13
2022-10-14T06:20:54.413Z,54.40
2022-10-14T06:23:22.098Z,53.69
2022-10-14T06:25:49.442Z,53.44
2022-10-14T06:28:17.779Z,53.77
2022-10-14T06:30:55.383Z,53.35
2022-10-14T06:33:26.949Z,52.49
2022-10-14T06:35:54.296Z,51.85
2022-10-14T06:38:25.193Z,53.10
2022-10-14T06:40:53.688Z,52.58
2022-10-14T06:43:22.218Z,52.16
2022-10-14T06:45:50.371Z,52.14
2022-10-14T06:48:17.775Z,54.66
2022-10-14T06:50:50.677Z,54.03
2022-10-14T06:53:18.129Z,56.24
2022-10-14T06:55:45.872Z,55.04
2022-10-14T06:58:14.494Z,54.22
2022-10-14T07:00:47.202Z,55.85
2022-10-14T07:03:18.099Z,53.75
2022-10-14T07:05:46.730Z,53.23
2022-10-14T07:08:15.502Z,53.88
2022-10-14T07:10:43.497Z,53.82
2022-10-14T07:13:10.958Z,53.99
2022-10-14T07:15:39.548Z,53.72
2022-10-14T07:18:07.747Z,54.09
2022-10-14T07:20:35.607Z,53.36
2022-10-14T07:23:03.003Z,52.61
2022-10-14T07:25:30.387Z,52.31
2022-10-14T07:27:57.758Z,52.96
2022-10-14T07:30:25.304Z,50.93
2022-10-14T07:32:52.729Z,50.54
2022-10-14T07:35:20.183Z,51.18
2022-10-14T07:37:51.143Z,50.95
2022-10-14T07:40:18.517Z,51.61
2022-10-14T07:42:46.325Z,50.77
2022-10-14T07:45:19.340Z,50.56
2022-10-14T07:47:51.614Z,51.50
2022-10-14T07:50:20.715Z,52.19
2022-10-14T07:52:47.995Z,49.63
2022-10-14T07:55:19.414Z,51.61
2022-10-14T07:57:47.123Z,51.03
2022-10-14T08:00:15.851Z,49.67
2022-10-14T08:02:43.415Z,50.18
2022-10-14T08:05:36.381Z,50.38
2022-10-14T08:07:59.020Z,50.07
2022-10-14T08:10:26.671Z,51.52
2022-10-14T08:12:54.367Z,52.37
2022-10-14T08:15:25.303Z,52.19
2022-10-14T08:17:53.292Z,50.38
2022-10-14T08:20:22.953Z,50.23
2022-10-14T08:22:52.049Z,50.26
2022-10-14T08:25:20.007Z,47.78
2022-10-14T08:27:50.756Z,46.75
2022-10-14T08:30:21.719Z,48.15
2022-10-14T08:32:50.096Z,47.27
2022-10-14T08:35:19.644Z,46.63
2022-10-14T08:37:59.191Z,47.25
2022-10-14T08:40:31.018Z,46.25
2022-10-14T08:43:02.401Z,46.49
2022-10-14T08:45:39.381Z,46.14
2022-10-14T08:48:18.264Z,46.95
2022-10-14T08:50:52.712Z,47.68
2022-10-14T08:53:22.645Z,45.71
2022-10-14T08:55:58.033Z,45.74
2022-10-14T08:58:49.297Z,45.56
2022-10-14T09:01:31.366Z,44.72
2022-10-14T09:04:14.217Z,44.13
2022-10-14T09:06:47.141Z,43.49
2022-10-14T09:09:28.583Z,44.40
2022-10-14T09:12:11.820Z,46.06
2022-10-14T09:14:48.593Z,46.57
2022-10-14T09:17:24.910Z,47.29
2022-10-14T09:20:18.532Z,46.84
2022-10-14T09:23:05.637Z,46.14
2022-10-14T09:25:38.414Z,45.57
2022-10-14T09:28:07.527Z,43.51
2022-10-14T09:30:40.090Z,46.49
2022-10-14T09:33:14.972Z,45.21
2022-10-14T09:35:43.689Z,44.32
2022-10-14T09:38:15.085Z,44.57
2022-10-14T09:40:48.586Z,44.21
2022-10-14T09:43:20.569Z,44.78
2022-10-14T09:46:02.710Z,42.67
2022-10-14T09:48:52.773Z,43.73
2022-10-14T09:51:27.115Z,43.46
2022-10-14T09:53:58.164Z,42.54
2022-10-14T09:56:44.884Z,42.91
2022-10-14T10:02:16.008Z,42.60
2022-10-14T10:04:48.408Z,44.59
2022-10-14T10:10:23.034Z,43.13
2022-10-14T10:12:52.062Z,43.87
2022-10-14T10:15:23.078Z,42.62
2022-10-14T10:17:52.392Z,42.28
2022-10-14T10:20:24.825Z,42.16
2022-10-14T10:25:36.031Z,41.33
2022-10-14T10:28:16.723Z,41.71
2022-10-14T10:31:24.658Z,42.19
2022-10-14T10:34:32.092Z,41.18
2022-10-14T10:37:05.542Z,40.27
2022-10-14T10:39:47.202Z,42.03
2022-10-14T10:42:24.202Z,41.96
2022-10-14T10:45:00.410Z,42.60
2022-10-14T10:47:35.758Z,42.02
2022-10-14T10:50:36.134Z,42.61
2022-10-14T10:53:13.951Z,41.78
2022-10-14T10:56:06.346Z,41.50
2022-10-14T10:58:45.505Z,42.18
2022-10-14T11:01:38.099Z,41.86
2022-10-14T11:04:26.295Z,41.56
2022-10-14T11:07:28.079Z,41.58
2022-10-14T11:10:42.520Z,42.40
2022-10-14T11:13:36.942Z,40.55
2022-10-14T11:16:37.417Z,39.93
2022-10-14T11:19:15.955Z,39.34
2022-10-14T11:21:48.554Z,39.09
2022-10-14T11:24:21.032Z,39.22
2022-10-14T11:26:59.687Z,38.04
2022-10-14T11:29:29.300Z,38.08
2022-10-14T11:32:07.746Z,38.09
2022-10-14T11:35:00.298Z,35.27
2022-10-14T11:37:39.097Z,36.42
2022-10-14T11:40:27.014Z,33.68
2022-10-14T11:43:07.088Z,31.19
2022-10-14T11:46:01.114Z,30.17
2022-10-14T11:48:38.196Z,30.32
2022-10-14T11:51:14.040Z,30.98
2022-10-14T11:53:55.953Z,29.03
2022-10-14T11:56:39.688Z,28.36
2022-10-14T11:59:34.890Z,27.91
2022-10-14T12:02:14.089Z,28.17
2022-10-14T12:04:46.455Z,28.55
2022-10-14T12:07:18.855Z,27.88
2022-10-14T12:09:55.814Z,28.15
2022-10-14T12:12:28.618Z,29.49
2022-10-14T12:15:01.517Z,29.13
2022-10-14T12:17:53.687Z,30.03
2022-10-14T12:20:56.539Z,29.28
2022-10-14T12:23:34.134Z,30.05
2022-10-14T12:26:05.861Z,30.41
2022-10-14T12:28:34.785Z,29.50
2022-10-14T12:31:21.085Z,30.77
2022-10-14T12:34:15.398Z,31.35
2022-10-14T12:36:44.479Z,31.30
2022-10-14T12:39:17.047Z,31.36
2022-10-14T12:41:59.098Z,32.03
2022-10-14T12:44:56.394Z,31.25
2022-10-14T12:47:35.186Z,30.55
2022-10-14T12:50:06.514Z,31.35
2022-10-14T12:52:37.584Z,31.64
2022-10-14T12:55:18.927Z,31.29
2022-10-14T12:57:55.109Z,32.97
2022-10-14T13:00:21.600Z,31.68
2022-10-14T13:02:53.792Z,31.72
2022-10-14T13:05:29.749Z,33.10
2022-10-14T13:08:23.763Z,32.93
2022-10-14T13:11:34.455Z,31.97
2022-10-14T13:14:21.152Z,31.87
2022-10-14T13:16:53.703Z,32.14
2022-10-14T13:19:35.126Z,32.61
2022-10-14T13:22:23.856Z,32.94
2022-10-14T13:24:51.849Z,33.29
2022-10-14T13:27:33.587Z,33.84
2022-10-14T13:30:06.272Z,33.76
2022-10-14T13:36:05.705Z,33.68
2022-10-14T13:38:33.286Z,34.38
2022-10-14T13:41:01.979Z,33.43
2022-10-14T13:43:39.163Z,33.21
2022-10-14T13:46:12.222Z,33.17
2022-10-14T13:48:44.086Z,33.27
2022-10-14T13:51:31.858Z,33.27
2022-10-14T13:54:16.140Z,32.19
2022-10-14T13:56:43.315Z,32.94
2022-10-14T13:59:43.805Z,33.08
2022-10-14T14:02:18.838Z,33.36
2022-10-14T14:04:52.053Z,31.97
2022-10-14T14:10:19.546Z,30.49
2022-10-14T14:12:46.586Z,29.92
2022-10-14T14:15:24.271Z,31.03
2022-10-14T14:17:51.147Z,30.21
2022-10-14T14:20:25.335Z,29.78
2022-10-14T14:22:51.989Z,29.62
2022-10-14T14:25:38.411Z,30.34
2022-10-14T14:28:15.174Z,29.73
2022-10-14T14:30:55.169Z,30.81
2022-10-14T14:33:35.030Z,31.64
2022-10-14T14:36:14.638Z,31.55
2022-10-14T14:38:58.688Z,32.37
2022-10-14T14:41:27.895Z,31.49
2022-10-14T14:44:20.973Z,30.43
2022-10-14T14:46:48.394Z,30.48
2022-10-14T14:49:18.086Z,31.17
2022-10-14T14:51:45.825Z,31.79
2022-10-14T14:54:19.182Z,32.68
2022-10-14T14:57:04.660Z,30.59
2022-10-14T14:59:57.237Z,31.35
2022-10-14T15:02:25.698Z,30.51
2022-10-14T15:05:01.799Z,30.70
2022-10-14T15:07:28.958Z,31.32
2022-10-14T15:09:58.923Z,30.84
2022-10-14T15:12:34.181Z,31.85
2022-10-14T15:15:02.294Z,31.22
2022-10-14T15:17:29.290Z,31.14
2022-10-14T15:20:28.342Z,32.57
2022-10-14T15:22:54.992Z,31.60
2022-10-14T15:25:21.521Z,32.40
2022-10-14T15:28:28.352Z,31.90
2022-10-14T15:31:01.545Z,32.08
2022-10-14T15:33:31.480Z,33.70
2022-10-14T15:36:02.522Z,32.20
2022-10-14T15:38:32.828Z,32.47
2022-10-14T15:40:59.694Z,31.88
2022-10-14T15:43:27.554Z,32.41
2022-10-14T15:46:14.516Z,31.95
2022-10-14T15:48:47.781Z,32.82
2022-10-14T15:51:16.724Z,33.75
2022-10-14T15:53:43.563Z,34.15
2022-10-14T15:56:10.482Z,34.07
2022-10-14T15:58:37.101Z,33.46
2022-10-14T16:01:06.548Z,33.50
2022-10-14T16:03:37.360Z,33.72
2022-10-14T16:06:07.050Z,34.38
2022-10-14T16:08:34.083Z,34.28
2022-10-14T16:11:01.553Z,34.99
2022-10-14T16:13:28.178Z,35.08
2022-10-14T16:16:03.571Z,35.85
2022-10-14T16:18:30.197Z,35.46
2022-10-14T16:20:56.781Z,35.80
2022-10-14T16:23:29.664Z,37.05
2022-10-14T16:26:00.241Z,38.25
2022-10-14T16:28:26.878Z,38.43
2022-10-14T16:30:53.731Z,37.98
2022-10-14T16:33:24.587Z,39.13
2022-10-14T16:35:56.573Z,39.24
2022-10-14T16:38:24.300Z,39.26
2022-10-14T16:40:58.997Z,39.06
2022-10-14T16:43:26.125Z,39.03
2022-10-14T16:45:53.357Z,39.68
2022-10-14T16:48:19.998Z,39.30
2022-10-14T16:50:50.570Z,39.67
2022-10-14T16:53:36.030Z,39.78
2022-10-14T16:56:02.647Z,39.92
2022-10-14T16:58:29.325Z,40.90
2022-10-14T17:00:56.315Z,41.19
2022-10-14T17:03:22.919Z,40.82
2022-10-14T17:05:57.508Z,40.76
2022-10-14T17:08:24.095Z,40.30
2022-10-14T17:10:50.747Z,39.74
2022-10-14T17:13:17.480Z,39.88
2022-10-14T17:15:47.088Z,39.86
2022-10-14T17:18:17.794Z,40.22
2022-10-14T17:20:45.179Z,40.77
2022-10-14T17:23:11.779Z,40.76
2022-10-14T17:25:38.378Z,40.36
2022-10-14T17:28:04.972Z,41.06
2022-10-14T17:30:31.612Z,40.73
2022-10-14T17:32:58.185Z,41.09
2022-10-14T17:35:24.903Z,41.70
2022-10-14T17:37:51.575Z,42.63
2022-10-14T17:40:18.208Z,43.55
2022-10-14T17:42:44.800Z,44.14
2022-10-14T17:45:11.634Z,44.41
2022-10-14T17:47:38.224Z,44.35
2022-10-14T17:50:07.084Z,44.53
2022-10-14T17:52:33.641Z,45.81
2022-10-14T17:55:01.555Z,45.76
2022-10-14T17:57:28.400Z,45.41
2022-10-14T17:59:55.009Z,45.62
2022-10-14T18:02:22.150Z,46.10
2022-10-14T18:04:48.734Z,45.51
2022-10-14T18:07:16.142Z,45.04
2022-10-14T18:09:43.646Z,44.17
2022-10-14T18:12:10.649Z,44.92
2022-10-14T18:14:40.969Z,56.48
2022-10-14T18:17:10.753Z,47.48
2022-10-14T18:19:37.568Z,46.43
2022-10-14T18:22:04.206Z,46.44
2022-10-14T18:24:30.801Z,46.74
2022-10-14T18:26:57.352Z,46.58
2022-10-14T18:29:24.639Z,47.58
2022-10-14T18:34:18.954Z,48.07
2022-10-14T18:36:46.138Z,47.93
2022-10-14T18:39:12.789Z,47.96
2022-10-14T18:41:39.444Z,47.92
2022-10-14T18:44:06.488Z,48.16
2022-10-14T18:46:35.594Z,48.86
2022-10-14T18:49:03.631Z,50.07
2022-10-14T18:51:34.652Z,49.57
2022-10-14T18:54:05.260Z,49.70
2022-10-14T18:56:36.624Z,48.97
2022-10-14T18:59:09.158Z,49.27
2022-10-14T19:01:37.354Z,49.20
2022-10-14T19:04:06.149Z,49.81
2022-10-14T19:06:34.271Z,49.90
2022-10-14T19:09:01.886Z,50.17
2022-10-14T19:11:29.488Z,49.95
2022-10-14T19:13:57.616Z,49.52
2022-10-14T19:16:29.615Z,50.98
2022-10-14T19:19:01.853Z,52.32
2022-10-14T19:21:31.663Z,52.13
2022-10-14T19:23:59.421Z,52.63
2022-10-14T19:26:28.454Z,53.26
2022-10-14T19:28:57.278Z,54.31
2022-10-14T19:31:26.291Z,53.15
2022-10-14T19:33:54.173Z,52.97
2022-10-14T19:36:22.371Z,52.03
2022-10-14T19:38:52.314Z,52.01
2022-10-14T19:41:18.962Z,52.41
2022-10-14T19:43:45.616Z,52.74
2022-10-14T19:46:13.555Z,52.43
2022-10-14T19:48:40.637Z,52.48
2022-10-14T19:51:11.273Z,51.62
2022-10-14T19:53:38.941Z,52.33
2022-10-14T19:56:08.378Z,52.53
2022-10-14T19:58:36.203Z,53.31
2022-10-14T20:01:17.681Z,53.13
2022-10-14T20:03:44.526Z,52.70
2022-10-14T20:06:13.372Z,52.48
2022-10-14T20:08:40.669Z,52.91
2022-10-14T20:11:10.328Z,51.92
2022-10-14T20:13:37.741Z,52.39
2022-10-14T20:16:06.384Z,52.31
2022-10-14T20:18:33.401Z,53.15
2022-10-14T20:21:05.779Z,53.82
2022-10-14T20:23:38.146Z,53.64
2022-10-14T20:26:07.527Z,54.33
2022-10-14T20:28:39.092Z,55.01
2022-10-14T20:31:07.376Z,55.29
2022-10-14T20:33:34.305Z,55.81
2022-10-14T20:36:04.882Z,56.91
2022-10-14T20:38:31.664Z,57.62
2022-10-14T20:41:05.505Z,58.41
2022-10-14T20:43:32.197Z,59.87
2022-10-14T20:45:58.779Z,59.64
2022-10-14T20:48:25.441Z,57.73
2022-10-14T20:50:52.054Z,57.36
2022-10-14T20:53:18.689Z,56.53
2022-10-14T20:55:45.345Z,56.97
2022-10-14T20:58:11.905Z,56.54
2022-10-14T21:00:38.737Z,56.27
2022-10-14T21:03:05.457Z,56.34
2022-10-14T21:05:32.091Z,56.97
2022-10-14T21:07:58.682Z,56.21
2022-10-14T21:10:25.297Z,55.34
2022-10-14T21:12:51.957Z,54.28
2022-10-14T21:15:18.558Z,54.40
2022-10-14T21:17:49.503Z,53.67
2022-10-14T21:20:16.931Z,54.30
2022-10-14T21:22:43.570Z,55.18
2022-10-14T21:25:10.199Z,54.97
2022-10-14T21:27:36.742Z,54.49
2022-10-14T21:30:04.180Z,54.83
2022-10-14T21:32:30.773Z,55.33
2022-10-14T21:34:58.532Z,55.15
2022-10-14T21:37:25.170Z,55.46
2022-10-14T21:39:51.773Z,56.24
2022-10-14T21:42:18.482Z,57.23
2022-10-14T21:44:45.072Z,56.87
2022-10-14T21:47:11.757Z,57.28
2022-10-14T21:49:38.359Z,57.42
2022-10-14T21:52:05.038Z,56.62
2022-10-14T21:54:31.605Z,56.60
2022-10-14T21:56:58.222Z,56.41
2022-10-14T21:59:24.832Z,55.66
2022-10-14T22:01:51.431Z,55.95
2022-10-14T22:04:18.068Z,54.67
2022-10-14T22:06:44.687Z,55.71
2022-10-14T22:09:11.324Z,55.09
2022-10-14T22:11:40.604Z,55.88
2022-10-14T22:14:11.169Z,55.70
2022-10-14T22:16:37.987Z,55.84
2022-10-14T22:19:07.263Z,56.24
2022-10-14T22:21:36.559Z,56.70
2022-10-14T22:24:04.567Z,56.98
2022-10-14T22:26:32.171Z,58.14
2022-10-14T22:29:07.319Z,56.33
2022-10-14T22:31:34.823Z,56.22
2022-10-14T22:34:04.503Z,57.38
2022-10-14T22:36:32.248Z,57.14
2022-10-14T22:39:00.486Z,57.92
2022-10-14T22:41:32.347Z,58.78
2022-10-14T22:44:01.828Z,58.98
2022-10-14T22:46:31.499Z,58.73
2022-10-14T22:48:59.102Z,59.01
2022-10-14T22:51:37.287Z,60.29
2022-10-14T22:54:04.345Z,59.54
2022-10-14T22:56:31.454Z,58.73
2022-10-14T22:59:03.136Z,59.31
2022-10-14T23:01:30.182Z,59.54
2022-10-14T23:03:58.602Z,58.60
2022-10-14T23:06:26.019Z,58.61
2022-10-14T23:08:52.679Z,59.06
2022-10-14T23:11:21.225Z,60.35
2022-10-14T23:13:48.373Z,59.57
2022-10-14T23:16:18.198Z,58.07
2022-10-14T23:18:45.835Z,58.99
2022-10-14T23:21:26.157Z,58.91
2022-10-14T23:23:55.737Z,58.58
2022-10-14T23:26:27.152Z,58.66
2022-10-14T23:28:57.691Z,58.86
2022-10-14T23:31:27.052Z,58.40
2022-10-14T23:33:54.386Z,58.20
2022-10-14T23:36:22.523Z,57.65
2022-10-14T23:38:51.536Z,58.36
2022-10-14T23:41:19.165Z,57.65
2022-10-14T23:43:45.796Z,57.31
2022-10-14T23:46:12.452Z,57.35
2022-10-14T23:48:39.114Z,57.18
2022-10-14T23:51:06.581Z,58.24
2022-10-14T23:53:33.899Z,59.16
2022-10-14T23:56:01.165Z,58.20
2022-10-14T23:58:29.764Z,56.73
